sensor_id;sensor_type;location;lat;lon;timestamp;pressure;altitude;pressure_sealevel;temperature;humidity
74045;BME280;62389;51.412;5.436;2023-04-28T00:00:24;101203.69;;;9.95;63.74
74045;BME280;62389;51.412;5.436;2023-04-28T00:02:49;101196.03;;;9.90;64.54
74045;BME280;62389;51.412;5.436;2023-04-28T00:05:14;101197.97;;;9.83;65.49
74045;BME280;62389;51.412;5.436;2023-04-28T00:07:40;101199.00;;;9.79;67.29
74045;BME280;62389;51.412;5.436;2023-04-28T00:10:05;101196.59;;;9.73;66.78
74045;BME280;62389;51.412;5.436;2023-04-28T00:12:31;101189.81;;;9.68;65.91
74045;BME280;62389;51.412;5.436;2023-04-28T00:14:56;101183.00;;;9.64;66.62
74045;BME280;62389;51.412;5.436;2023-04-28T00:17:22;101191.78;;;9.61;67.21
74045;BME280;62389;51.412;5.436;2023-04-28T00:19:47;101182.34;;;9.57;67.45
74045;BME280;62389;51.412;5.436;2023-04-28T00:22:14;101178.94;;;9.55;68.55
74045;BME280;62389;51.412;5.436;2023-04-28T00:24:39;101174.66;;;9.54;66.98
74045;BME280;62389;51.412;5.436;2023-04-28T00:27:06;101172.06;;;9.52;67.64
74045;BME280;62389;51.412;5.436;2023-04-28T00:29:31;101183.34;;;9.53;67.87
74045;BME280;62389;51.412;5.436;2023-04-28T00:31:56;101172.97;;;9.51;68.79
74045;BME280;62389;51.412;5.436;2023-04-28T00:34:22;101163.50;;;9.49;67.83
74045;BME280;62389;51.412;5.436;2023-04-28T00:36:47;101159.97;;;9.50;67.78
74045;BME280;62389;51.412;5.436;2023-04-28T00:39:12;101153.91;;;9.49;67.54
74045;BME280;62389;51.412;5.436;2023-04-28T00:41:38;101146.94;;;9.48;67.48
74045;BME280;62389;51.412;5.436;2023-04-28T00:44:04;101144.41;;;9.47;67.65
74045;BME280;62389;51.412;5.436;2023-04-28T00:46:30;101142.72;;;9.46;67.90
74045;BME280;62389;51.412;5.436;2023-04-28T00:48:58;101134.06;;;9.44;67.66
74045;BME280;62389;51.412;5.436;2023-04-28T00:51:24;101127.13;;;9.43;67.70
74045;BME280;62389;51.412;5.436;2023-04-28T00:53:49;101128.84;;;9.44;66.95
74045;BME280;62389;51.412;5.436;2023-04-28T00:56:15;101123.66;;;9.42;68.71
74045;BME280;62389;51.412;5.436;2023-04-28T00:58:41;101121.06;;;9.42;67.58
74045;BME280;62389;51.412;5.436;2023-04-28T01:01:09;101121.91;;;9.43;67.63
74045;BME280;62389;51.412;5.436;2023-04-28T01:03:38;101105.34;;;9.44;67.54
74045;BME280;62389;51.412;5.436;2023-04-28T01:06:04;101109.78;;;9.42;68.15
74045;BME280;62389;51.412;5.436;2023-04-28T01:08:31;101095.94;;;9.40;68.80
74045;BME280;62389;51.412;5.436;2023-04-28T01:10:56;101086.44;;;9.37;68.41
74045;BME280;62389;51.412;5.436;2023-04-28T01:13:22;101090.88;;;9.35;69.61
74045;BME280;62389;51.412;5.436;2023-04-28T01:15:47;101097.09;;;9.31;68.67
74045;BME280;62389;51.412;5.436;2023-04-28T01:18:13;101100.63;;;9.30;69.54
74045;BME280;62389;51.412;5.436;2023-04-28T01:20:40;101101.47;;;9.30;70.39
74045;BME280;62389;51.412;5.436;2023-04-28T01:23:11;101100.63;;;9.30;69.02
74045;BME280;62389;51.412;5.436;2023-04-28T01:25:36;101098.91;;;9.29;69.50
74045;BME280;62389;51.412;5.436;2023-04-28T01:28:01;101097.16;;;9.29;68.38
74045;BME280;62389;51.412;5.436;2023-04-28T01:30:27;101095.47;;;9.27;69.31
74045;BME280;62389;51.412;5.436;2023-04-28T01:32:52;101093.78;;;9.26;69.07
74045;BME280;62389;51.412;5.436;2023-04-28T01:35:17;101090.41;;;9.22;69.36
74045;BME280;62389;51.412;5.436;2023-04-28T01:37:43;101091.31;;;9.21;70.83
74045;BME280;62389;51.412;5.436;2023-04-28T01:40:08;101082.59;;;9.22;71.78
74045;BME280;62389;51.412;5.436;2023-04-28T01:42:34;101084.41;;;9.20;68.98
74045;BME280;62389;51.412;5.436;2023-04-28T01:45:00;101082.72;;;9.19;69.26
74045;BME280;62389;51.412;5.436;2023-04-28T01:47:25;101075.66;;;9.21;68.85
74045;BME280;62389;51.412;5.436;2023-04-28T01:49:50;101075.66;;;9.21;69.50
74045;BME280;62389;51.412;5.436;2023-04-28T01:52:16;101078.50;;;9.15;71.87
74045;BME280;62389;51.412;5.436;2023-04-28T01:54:43;101077.66;;;9.15;73.42
74045;BME280;62389;51.412;5.436;2023-04-28T01:57:09;101064.63;;;9.13;70.96
74045;BME280;62389;51.412;5.436;2023-04-28T01:59:34;101062.00;;;9.13;73.05
74045;BME280;62389;51.412;5.436;2023-04-28T02:01:59;101061.16;;;9.13;73.86
74045;BME280;62389;51.412;5.436;2023-04-28T02:04:25;101063.75;;;9.14;74.02
74045;BME280;62389;51.412;5.436;2023-04-28T02:06:50;101062.00;;;9.13;71.73
74045;BME280;62389;51.412;5.436;2023-04-28T02:09:16;101070.75;;;9.12;72.68
74045;BME280;62389;51.412;5.436;2023-04-28T02:11:41;101065.53;;;9.12;71.44
74045;BME280;62389;51.412;5.436;2023-04-28T02:14:06;101078.59;;;9.12;73.83
74045;BME280;62389;51.412;5.436;2023-04-28T02:16:32;101074.22;;;9.13;73.89
74045;BME280;62389;51.412;5.436;2023-04-28T02:18:57;101054.19;;;9.13;72.60
74045;BME280;62389;51.412;5.436;2023-04-28T02:21:23;101044.56;;;9.15;73.94
74045;BME280;62389;51.412;5.436;2023-04-28T02:23:48;101048.94;;;9.15;73.18
74045;BME280;62389;51.412;5.436;2023-04-28T02:26:14;101044.72;;;9.11;74.26
74045;BME280;62389;51.412;5.436;2023-04-28T02:28:40;101035.22;;;9.08;74.68
74045;BME280;62389;51.412;5.436;2023-04-28T02:31:10;101025.59;;;9.10;75.04
74045;BME280;62389;51.412;5.436;2023-04-28T02:33:36;101025.53;;;9.12;74.69
74045;BME280;62389;51.412;5.436;2023-04-28T02:36:02;101020.25;;;9.13;74.60
74045;BME280;62389;51.412;5.436;2023-04-28T02:38:28;101009.81;;;9.13;74.10
74045;BME280;62389;51.412;5.436;2023-04-28T02:41:05;100995.00;;;9.15;73.37
74045;BME280;62389;51.412;5.436;2023-04-28T02:43:32;100980.19;;;9.16;74.28
74045;BME280;62389;51.412;5.436;2023-04-28T02:45:57;100975.03;;;9.14;74.68
74045;BME280;62389;51.412;5.436;2023-04-28T02:48:24;100973.41;;;9.10;74.34
74045;BME280;62389;51.412;5.436;2023-04-28T02:50:49;100969.22;;;9.06;75.04
74045;BME280;62389;51.412;5.436;2023-04-28T02:53:15;100954.56;;;9.02;75.47
74045;BME280;62389;51.412;5.436;2023-04-28T02:55:40;100953.81;;;8.98;75.45
74045;BME280;62389;51.412;5.436;2023-04-28T02:58:06;100967.91;;;8.94;75.97
74045;BME280;62389;51.412;5.436;2023-04-28T03:00:31;100966.28;;;8.90;76.17
74045;BME280;62389;51.412;5.436;2023-04-28T03:02:57;100970.88;;;8.84;76.87
74045;BME280;62389;51.412;5.436;2023-04-28T03:05:22;100977.88;;;8.81;76.15
74045;BME280;62389;51.412;5.436;2023-04-28T03:07:48;100975.28;;;8.81;76.52
74045;BME280;62389;51.412;5.436;2023-04-28T03:10:13;100976.97;;;8.82;77.38
74045;BME280;62389;51.412;5.436;2023-04-28T03:12:38;100978.63;;;8.85;76.75
74045;BME280;62389;51.412;5.436;2023-04-28T03:15:04;100968.97;;;8.89;76.58
74045;BME280;62389;51.412;5.436;2023-04-28T03:17:32;100978.34;;;8.93;76.66
74045;BME280;62389;51.412;5.436;2023-04-28T03:19:58;100975.72;;;8.94;77.28
74045;BME280;62389;51.412;5.436;2023-04-28T03:22:23;100973.19;;;8.91;78.16
74045;BME280;62389;51.412;5.436;2023-04-28T03:24:48;100979.41;;;8.89;78.51
74045;BME280;62389;51.412;5.436;2023-04-28T03:27:14;100975.06;;;8.88;77.72
74045;BME280;62389;51.412;5.436;2023-04-28T03:29:39;100974.06;;;8.92;78.30
74045;BME280;62389;51.412;5.436;2023-04-28T03:32:05;100973.97;;;8.95;78.03
74045;BME280;62389;51.412;5.436;2023-04-28T03:34:30;100973.84;;;8.98;78.88
74045;BME280;62389;51.412;5.436;2023-04-28T03:36:56;100971.13;;;9.01;80.11
74045;BME280;62389;51.412;5.436;2023-04-28T03:39:21;100965.84;;;9.02;79.95
74045;BME280;62389;51.412;5.436;2023-04-28T03:41:46;100964.91;;;9.05;78.85
74045;BME280;62389;51.412;5.436;2023-04-28T03:44:12;100972.66;;;9.06;78.53
74045;BME280;62389;51.412;5.436;2023-04-28T03:46:37;100970.00;;;9.08;79.45
74045;BME280;62389;51.412;5.436;2023-04-28T03:49:04;100962.97;;;9.10;75.52
74045;BME280;62389;51.412;5.436;2023-04-28T03:51:30;100959.53;;;9.10;78.31
74045;BME280;62389;51.412;5.436;2023-04-28T03:53:57;100956.06;;;9.09;78.63
74045;BME280;62389;51.412;5.436;2023-04-28T03:56:23;100945.56;;;9.11;78.44
74045;BME280;62389;51.412;5.436;2023-04-28T03:58:48;100941.13;;;9.13;79.22
74045;BME280;62389;51.412;5.436;2023-04-28T04:01:13;100930.66;;;9.14;79.45
74045;BME280;62389;51.412;5.436;2023-04-28T04:03:39;100929.84;;;9.12;79.66
74045;BME280;62389;51.412;5.436;2023-04-28T04:06:05;100935.19;;;9.09;80.00
74045;BME280;62389;51.412;5.436;2023-04-28T04:08:31;100934.38;;;9.07;79.80
74045;BME280;62389;51.412;5.436;2023-04-28T04:10:57;100930.06;;;9.06;79.70
74045;BME280;62389;51.412;5.436;2023-04-28T04:13:22;100931.03;;;9.03;80.57
74045;BME280;62389;51.412;5.436;2023-04-28T04:15:48;100939.72;;;9.04;80.29
74045;BME280;62389;51.412;5.436;2023-04-28T04:18:14;100935.28;;;9.06;81.14
74045;BME280;62389;51.412;5.436;2023-04-28T04:20:40;100936.06;;;9.08;81.20
74045;BME280;62389;51.412;5.436;2023-04-28T04:23:05;100936.91;;;9.08;80.31
74045;BME280;62389;51.412;5.436;2023-04-28T04:25:30;100939.50;;;9.10;79.50
74045;BME280;62389;51.412;5.436;2023-04-28T04:27:57;100940.28;;;9.12;80.83
74045;BME280;62389;51.412;5.436;2023-04-28T04:30:22;100936.72;;;9.15;80.41
74045;BME280;62389;51.412;5.436;2023-04-28T04:32:48;100928.78;;;9.18;80.92
74045;BME280;62389;51.412;5.436;2023-04-28T04:35:13;100929.63;;;9.18;80.02
74045;BME280;62389;51.412;5.436;2023-04-28T04:37:39;100929.63;;;9.18;80.18
74045;BME280;62389;51.412;5.436;2023-04-28T04:40:05;100915.63;;;9.21;80.92
74045;BME280;62389;51.412;5.436;2023-04-28T04:42:30;100907.69;;;9.24;80.05
74045;BME280;62389;51.412;5.436;2023-04-28T04:44:56;100911.09;;;9.26;80.10
74045;BME280;62389;51.412;5.436;2023-04-28T04:47:21;100910.22;;;9.25;80.95
74045;BME280;62389;51.412;5.436;2023-04-28T04:49:47;100909.31;;;9.26;81.17
74045;BME280;62389;51.412;5.436;2023-04-28T04:52:14;100906.59;;;9.29;80.85
74045;BME280;62389;51.412;5.436;2023-04-28T04:54:39;100898.72;;;9.31;80.76
74045;BME280;62389;51.412;5.436;2023-04-28T04:57:05;100897.72;;;9.33;81.06
74045;BME280;62389;51.412;5.436;2023-04-28T04:59:31;100895.94;;;9.36;80.32
74045;BME280;62389;51.412;5.436;2023-04-28T05:01:56;100901.09;;;9.37;79.83
74045;BME280;62389;51.412;5.436;2023-04-28T05:04:22;100906.25;;;9.39;80.98
74045;BME280;62389;51.412;5.436;2023-04-28T05:06:47;100891.56;;;9.36;81.26
74045;BME280;62389;51.412;5.436;2023-04-28T05:09:13;100886.28;;;9.38;81.43
74045;BME280;62389;51.412;5.436;2023-04-28T05:11:38;100886.22;;;9.39;81.17
74045;BME280;62389;51.412;5.436;2023-04-28T05:14:03;100892.22;;;9.41;81.20
74045;BME280;62389;51.412;5.436;2023-04-28T05:16:29;100897.34;;;9.44;81.03
74045;BME280;62389;51.412;5.436;2023-04-28T05:18:54;100896.25;;;9.50;82.05
74045;BME280;62389;51.412;5.436;2023-04-28T05:21:20;100907.31;;;9.56;80.22
74045;BME280;62389;51.412;5.436;2023-04-28T05:23:45;100911.50;;;9.60;80.12
74045;BME280;62389;51.412;5.436;2023-04-28T05:26:10;100908.84;;;9.62;80.10
74045;BME280;62389;51.412;5.436;2023-04-28T05:28:36;100904.34;;;9.66;80.06
74045;BME280;62389;51.412;5.436;2023-04-28T05:31:01;100905.97;;;9.68;80.94
74045;BME280;62389;51.412;5.436;2023-04-28T05:33:27;100892.81;;;9.71;80.84
74045;BME280;62389;51.412;5.436;2023-04-28T05:35:52;100894.50;;;9.72;81.06
74045;BME280;62389;51.412;5.436;2023-04-28T05:38:17;100890.13;;;9.73;80.11
74045;BME280;62389;51.412;5.436;2023-04-28T05:40:43;100891.81;;;9.74;81.78
74045;BME280;62389;51.412;5.436;2023-04-28T05:43:08;100892.56;;;9.77;81.15
74045;BME280;62389;51.412;5.436;2023-04-28T05:45:33;100894.16;;;9.81;80.74
74045;BME280;62389;51.412;5.436;2023-04-28T05:47:59;100897.44;;;9.86;81.34
74045;BME280;62389;51.412;5.436;2023-04-28T05:50:24;100898.88;;;9.94;82.02
74045;BME280;62389;51.412;5.436;2023-04-28T05:52:50;100893.53;;;9.97;82.65
74045;BME280;62389;51.412;5.436;2023-04-28T05:55:15;100899.53;;;9.99;82.52
74045;BME280;62389;51.412;5.436;2023-04-28T05:57:41;100895.22;;;9.98;81.82
74045;BME280;62389;51.412;5.436;2023-04-28T06:00:07;100898.66;;;10.00;83.13
74045;BME280;62389;51.412;5.436;2023-04-28T06:02:32;100899.50;;;10.00;82.06
74045;BME280;62389;51.412;5.436;2023-04-28T06:04:57;100891.47;;;10.05;82.62
74045;BME280;62389;51.412;5.436;2023-04-28T06:07:23;100899.00;;;10.12;82.96
74045;BME280;62389;51.412;5.436;2023-04-28T06:09:48;100906.53;;;10.20;82.54
74045;BME280;62389;51.412;5.436;2023-04-28T06:12:14;100900.31;;;10.24;84.00
74045;BME280;62389;51.412;5.436;2023-04-28T06:14:39;100905.53;;;10.24;85.06
74045;BME280;62389;51.412;5.436;2023-04-28T06:17:04;100902.03;;;10.24;85.81
74045;BME280;62389;51.412;5.436;2023-04-28T06:19:30;100901.16;;;10.23;85.73
74045;BME280;62389;51.412;5.436;2023-04-28T06:21:55;100896.84;;;10.22;86.35
74045;BME280;62389;51.412;5.436;2023-04-28T06:24:21;100897.78;;;10.21;87.29
74045;BME280;62389;51.412;5.436;2023-04-28T06:26:46;100898.63;;;10.22;87.45
74045;BME280;62389;51.412;5.436;2023-04-28T06:29:12;100894.25;;;10.22;88.13
74045;BME280;62389;51.412;5.436;2023-04-28T06:31:37;100894.16;;;10.25;89.04
74045;BME280;62389;51.412;5.436;2023-04-28T06:34:02;100893.06;;;10.31;88.71
74045;BME280;62389;51.412;5.436;2023-04-28T06:36:28;100900.56;;;10.38;88.88
74045;BME280;62389;51.412;5.436;2023-04-28T06:38:53;100898.59;;;10.44;89.43
74045;BME280;62389;51.412;5.436;2023-04-28T06:41:18;100888.28;;;10.41;89.60
74045;BME280;62389;51.412;5.436;2023-04-28T06:43:44;100892.66;;;10.40;90.62
74045;BME280;62389;51.412;5.436;2023-04-28T06:46:09;100889.22;;;10.40;91.04
74045;BME280;62389;51.412;5.436;2023-04-28T06:48:36;100893.78;;;10.34;91.56
74045;BME280;62389;51.412;5.436;2023-04-28T06:51:01;100882.72;;;10.28;92.23
74045;BME280;62389;51.412;5.436;2023-04-28T06:53:27;100882.09;;;10.21;92.92
74045;BME280;62389;51.412;5.436;2023-04-28T06:55:53;100882.38;;;10.13;93.02
74045;BME280;62389;51.412;5.436;2023-04-28T06:58:18;100878.22;;;10.09;93.83
74045;BME280;62389;51.412;5.436;2023-04-28T07:00:44;100873.84;;;10.10;94.20
74045;BME280;62389;51.412;5.436;2023-04-28T07:03:10;100866.78;;;10.12;94.90
74045;BME280;62389;51.412;5.436;2023-04-28T07:05:35;100868.03;;;10.25;95.44
74045;BME280;62389;51.412;5.436;2023-04-28T07:08:01;100861.75;;;10.50;97.05
74045;BME280;62389;51.412;5.436;2023-04-28T07:10:26;100866.25;;;10.67;95.29
74045;BME280;62389;51.412;5.436;2023-04-28T07:12:51;100869.59;;;10.70;94.90
74045;BME280;62389;51.412;5.436;2023-04-28T07:15:17;100878.31;;;10.69;94.72
74045;BME280;62389;51.412;5.436;2023-04-28T07:17:42;100867.84;;;10.69;95.28
74045;BME280;62389;51.412;5.436;2023-04-28T07:20:08;100880.03;;;10.70;95.18
74045;BME280;62389;51.412;5.436;2023-04-28T07:22:33;100874.66;;;10.73;95.22
74045;BME280;62389;51.412;5.436;2023-04-28T07:24:59;100873.03;;;10.71;95.19
74045;BME280;62389;51.412;5.436;2023-04-28T07:27:24;100868.94;;;10.65;95.18
74045;BME280;62389;51.412;5.436;2023-04-28T07:29:49;100867.09;;;10.67;95.76
74045;BME280;62389;51.412;5.436;2023-04-28T07:32:15;100876.34;;;10.74;95.72
74045;BME280;62389;51.412;5.436;2023-04-28T07:34:40;100877.81;;;10.81;95.61
74045;BME280;62389;51.412;5.436;2023-04-28T07:37:06;100881.91;;;10.87;95.37
74045;BME280;62389;51.412;5.436;2023-04-28T07:39:32;100882.75;;;10.87;94.98
74045;BME280;62389;51.412;5.436;2023-04-28T07:41:59;100884.59;;;10.85;95.40
74045;BME280;62389;51.412;5.436;2023-04-28T07:44:25;100892.38;;;10.87;94.98
74045;BME280;62389;51.412;5.436;2023-04-28T07:46:50;100886.19;;;10.89;95.66
74045;BME280;62389;51.412;5.436;2023-04-28T07:49:16;100886.03;;;10.93;95.10
74045;BME280;62389;51.412;5.436;2023-04-28T07:51:41;100887.88;;;10.91;95.41
74045;BME280;62389;51.412;5.436;2023-04-28T07:54:07;100881.78;;;10.90;95.42
74045;BME280;62389;51.412;5.436;2023-04-28T07:56:33;100879.94;;;10.92;96.38
74045;BME280;62389;51.412;5.436;2023-04-28T07:58:58;100888.56;;;10.94;96.35
74045;BME280;62389;51.412;5.436;2023-04-28T08:01:23;100884.22;;;10.95;96.53
74045;BME280;62389;51.412;5.436;2023-04-28T08:03:49;100882.34;;;10.97;96.36
74045;BME280;62389;51.412;5.436;2023-04-28T08:06:15;100889.94;;;11.03;96.55
74045;BME280;62389;51.412;5.436;2023-04-28T08:08:40;100889.53;;;11.12;96.59
74045;BME280;62389;51.412;5.436;2023-04-28T08:11:06;100885.66;;;11.21;96.62
74045;BME280;62389;51.412;5.436;2023-04-28T08:13:32;100892.38;;;11.26;96.79
74045;BME280;62389;51.412;5.436;2023-04-28T08:15:58;100890.53;;;11.28;97.03
74045;BME280;62389;51.412;5.436;2023-04-28T08:18:27;100882.53;;;11.31;97.59
74045;BME280;62389;51.412;5.436;2023-04-28T08:20:53;100876.94;;;11.39;96.74
74045;BME280;62389;51.412;5.436;2023-04-28T08:23:18;100882.88;;;11.43;96.27
74045;BME280;62389;51.412;5.436;2023-04-28T08:25:45;100885.38;;;11.46;96.26
74045;BME280;62389;51.412;5.436;2023-04-28T08:28:11;100891.25;;;11.51;96.41
74045;BME280;62389;51.412;5.436;2023-04-28T08:30:36;100890.81;;;11.60;97.21
74045;BME280;62389;51.412;5.436;2023-04-28T08:33:03;100894.69;;;11.70;96.73
74045;BME280;62389;51.412;5.436;2023-04-28T08:35:29;100883.06;;;11.76;96.61
74045;BME280;62389;51.412;5.436;2023-04-28T08:37:54;100890.09;;;11.75;96.69
74045;BME280;62389;51.412;5.436;2023-04-28T08:40:20;100896.22;;;11.74;97.21
74045;BME280;62389;51.412;5.436;2023-04-28T08:42:46;100886.47;;;11.78;97.70
74045;BME280;62389;51.412;5.436;2023-04-28T08:45:14;100893.00;;;11.88;97.89
74045;BME280;62389;51.412;5.436;2023-04-28T08:47:41;100896.31;;;11.91;97.79
74045;BME280;62389;51.412;5.436;2023-04-28T08:50:10;100892.69;;;11.94;97.97
74045;BME280;62389;51.412;5.436;2023-04-28T08:52:41;100887.41;;;11.96;98.25
74045;BME280;62389;51.412;5.436;2023-04-28T08:55:11;100896.00;;;11.98;97.94
74045;BME280;62389;51.412;5.436;2023-04-28T08:57:44;100900.34;;;11.99;97.80
74045;BME280;62389;51.412;5.436;2023-04-28T09:00:11;100892.56;;;11.97;98.43
74045;BME280;62389;51.412;5.436;2023-04-28T09:02:37;100896.00;;;11.98;98.64
74045;BME280;62389;51.412;5.436;2023-04-28T09:05:09;100901.13;;;12.01;99.00
74045;BME280;62389;51.412;5.436;2023-04-28T09:07:34;100898.34;;;12.04;100.00
74045;BME280;62389;51.412;5.436;2023-04-28T09:10:21;100900.50;;;12.13;99.83
74045;BME280;62389;51.412;5.436;2023-04-28T09:12:48;100893.13;;;12.21;100.00
74045;BME280;62389;51.412;5.436;2023-04-28T09:17:57;100886.31;;;12.34;100.00
74045;BME280;62389;51.412;5.436;2023-04-28T09:20:24;100883.41;;;12.40;99.88
74045;BME280;62389;51.412;5.436;2023-04-28T09:22:51;100888.25;;;12.48;99.55
74045;BME280;62389;51.412;5.436;2023-04-28T09:25:18;100889.94;;;12.49;99.71
74045;BME280;62389;51.412;5.436;2023-04-28T09:27:45;100893.38;;;12.51;98.98
74045;BME280;62389;51.412;5.436;2023-04-28T09:30:11;100885.56;;;12.50;98.68
74045;BME280;62389;51.412;5.436;2023-04-28T09:32:36;100886.34;;;12.52;99.17
74045;BME280;62389;51.412;5.436;2023-04-28T09:35:02;100895.06;;;12.52;98.96
74045;BME280;62389;51.412;5.436;2023-04-28T09:37:29;100894.91;;;12.55;99.06
74045;BME280;62389;51.412;5.436;2023-04-28T09:39:56;100891.50;;;12.53;99.01
74045;BME280;62389;51.412;5.436;2023-04-28T09:42:35;100901.00;;;12.56;98.85
74045;BME280;62389;51.412;5.436;2023-04-28T09:45:03;100897.28;;;12.60;98.96
74045;BME280;62389;51.412;5.436;2023-04-28T09:47:29;100894.59;;;12.61;99.00
74045;BME280;62389;51.412;5.436;2023-04-28T09:50:02;100901.44;;;12.64;98.84
74045;BME280;62389;51.412;5.436;2023-04-28T09:52:28;100894.41;;;12.64;98.69
74045;BME280;62389;51.412;5.436;2023-04-28T09:54:55;100906.38;;;12.70;98.59
74045;BME280;62389;51.412;5.436;2023-04-28T09:57:21;100899.19;;;12.74;99.23
74045;BME280;62389;51.412;5.436;2023-04-28T09:59:49;100904.22;;;12.78;98.50
74045;BME280;62389;51.412;5.436;2023-04-28T10:02:15;100909.06;;;12.86;98.34
74045;BME280;62389;51.412;5.436;2023-04-28T10:04:45;100906.97;;;12.92;98.51
74045;BME280;62389;51.412;5.436;2023-04-28T10:07:12;100907.72;;;12.94;97.96
74045;BME280;62389;51.412;5.436;2023-04-28T10:09:44;100910.34;;;12.94;97.66
74045;BME280;62389;51.412;5.436;2023-04-28T10:12:22;100907.56;;;12.98;98.21
74045;BME280;62389;51.412;5.436;2023-04-28T10:14:49;100902.41;;;12.96;97.37
74045;BME280;62389;51.412;5.436;2023-04-28T10:17:17;100901.41;;;12.99;96.85
74045;BME280;62389;51.412;5.436;2023-04-28T10:19:45;100902.31;;;12.98;97.31
74045;BME280;62389;51.412;5.436;2023-04-28T10:25:01;100896.00;;;13.02;97.08
74045;BME280;62389;51.412;5.436;2023-04-28T10:27:33;100892.03;;;13.10;97.44
74045;BME280;62389;51.412;5.436;2023-04-28T10:32:36;100894.72;;;13.26;96.93
74045;BME280;62389;51.412;5.436;2023-04-28T10:43:01;100891.66;;;13.50;96.41
74045;BME280;62389;51.412;5.436;2023-04-28T10:45:57;100887.00;;;13.55;95.69
74045;BME280;62389;51.412;5.436;2023-04-28T10:56:22;100891.41;;;13.70;94.76
74045;BME280;62389;51.412;5.436;2023-04-28T10:58:53;100875.56;;;13.87;95.72
74045;BME280;62389;51.412;5.436;2023-04-28T11:04:08;100867.41;;;14.22;92.72
74045;BME280;62389;51.412;5.436;2023-04-28T11:06:42;100869.06;;;14.39;93.10
74045;BME280;62389;51.412;5.436;2023-04-28T11:11:36;100869.03;;;14.55;91.47
74045;BME280;62389;51.412;5.436;2023-04-28T11:17:03;100861.50;;;14.48;91.20
74045;BME280;62389;51.412;5.436;2023-04-28T11:19:54;100861.22;;;14.53;90.89
74045;BME280;62389;51.412;5.436;2023-04-28T11:22:21;100859.44;;;14.54;90.93
74045;BME280;62389;51.412;5.436;2023-04-28T11:24:58;100854.16;;;14.54;91.03
74045;BME280;62389;51.412;5.436;2023-04-28T11:27:25;100855.13;;;14.53;90.28
74045;BME280;62389;51.412;5.436;2023-04-28T11:29:51;100854.44;;;14.49;90.86
74045;BME280;62389;51.412;5.436;2023-04-28T11:32:25;100869.38;;;14.48;90.80
74045;BME280;62389;51.412;5.436;2023-04-28T11:34:51;100863.41;;;14.45;90.09
74045;BME280;62389;51.412;5.436;2023-04-28T11:37:16;100864.47;;;14.42;90.40
74045;BME280;62389;51.412;5.436;2023-04-28T11:39:42;100861.16;;;14.39;91.19
74045;BME280;62389;51.412;5.436;2023-04-28T11:42:10;100854.31;;;14.36;90.98
74045;BME280;62389;51.412;5.436;2023-04-28T11:44:36;100856.94;;;14.36;91.67
74045;BME280;62389;51.412;5.436;2023-04-28T11:47:03;100859.47;;;14.38;91.86
74045;BME280;62389;51.412;5.436;2023-04-28T11:49:40;100866.53;;;14.37;90.85
74045;BME280;62389;51.412;5.436;2023-04-28T11:52:07;100867.53;;;14.35;92.21
74045;BME280;62389;51.412;5.436;2023-04-28T11:54:34;100874.41;;;14.37;92.35
74045;BME280;62389;51.412;5.436;2023-04-28T11:56:59;100874.03;;;14.43;92.95
74045;BME280;62389;51.412;5.436;2023-04-28T11:59:27;100874.78;;;14.45;93.42
74045;BME280;62389;51.412;5.436;2023-04-28T12:01:55;100887.38;;;14.40;93.01
74045;BME280;62389;51.412;5.436;2023-04-28T12:04:36;100886.78;;;14.35;94.48
74045;BME280;62389;51.412;5.436;2023-04-28T12:07:17;100883.78;;;14.27;94.76
74045;BME280;62389;51.412;5.436;2023-04-28T12:12:13;100890.34;;;14.50;94.59
74045;BME280;62389;51.412;5.436;2023-04-28T12:15:03;100888.22;;;14.57;94.20
74045;BME280;62389;51.412;5.436;2023-04-28T12:17:41;100888.97;;;14.59;93.66
74045;BME280;62389;51.412;5.436;2023-04-28T12:20:08;100888.22;;;14.57;93.36
74045;BME280;62389;51.412;5.436;2023-04-28T12:22:48;100889.44;;;14.51;92.45
74045;BME280;62389;51.412;5.436;2023-04-28T12:25:16;100886.88;;;14.49;94.26
74045;BME280;62389;51.412;5.436;2023-04-28T12:28:00;100893.16;;;14.47;93.04
74045;BME280;62389;51.412;5.436;2023-04-28T12:30:27;100899.41;;;14.44;93.86
74045;BME280;62389;51.412;5.436;2023-04-28T12:32:53;100908.09;;;14.46;93.22
74045;BME280;62389;51.412;5.436;2023-04-28T12:35:24;100909.63;;;14.35;93.79
74045;BME280;62389;51.412;5.436;2023-04-28T12:37:50;100895.84;;;14.31;93.79
74045;BME280;62389;51.412;5.436;2023-04-28T12:40:16;100909.31;;;14.25;93.31
74045;BME280;62389;51.412;5.436;2023-04-28T12:42:42;100911.72;;;14.14;92.37
74045;BME280;62389;51.412;5.436;2023-04-28T12:45:07;100913.88;;;14.07;92.52
74045;BME280;62389;51.412;5.436;2023-04-28T12:47:34;100921.84;;;14.06;93.01
74045;BME280;62389;51.412;5.436;2023-04-28T12:49:59;100917.44;;;14.06;93.01
74045;BME280;62389;51.412;5.436;2023-04-28T12:52:25;100923.34;;;14.10;92.05
74045;BME280;62389;51.412;5.436;2023-04-28T12:54:50;100927.50;;;14.14;92.08
74045;BME280;62389;51.412;5.436;2023-04-28T12:57:16;100930.91;;;14.16;92.35
74045;BME280;62389;51.412;5.436;2023-04-28T12:59:42;100932.78;;;14.14;92.02
74045;BME280;62389;51.412;5.436;2023-04-28T13:02:08;100936.94;;;14.02;91.50
74045;BME280;62389;51.412;5.436;2023-04-28T13:04:33;100934.56;;;13.97;91.51
74045;BME280;62389;51.412;5.436;2023-04-28T13:06:59;100935.59;;;13.95;91.55
74045;BME280;62389;51.412;5.436;2023-04-28T13:09:25;100945.00;;;13.99;92.31
74045;BME280;62389;51.412;5.436;2023-04-28T13:11:51;100947.88;;;13.94;90.85
74045;BME280;62389;51.412;5.436;2023-04-28T13:14:20;100946.69;;;13.84;91.57
74045;BME280;62389;51.412;5.436;2023-04-28T13:16:46;100950.13;;;13.70;90.66
74045;BME280;62389;51.412;5.436;2023-04-28T13:19:11;100955.53;;;13.52;91.46
74045;BME280;62389;51.412;5.436;2023-04-28T13:21:42;100956.94;;;13.41;92.26
74045;BME280;62389;51.412;5.436;2023-04-28T13:24:08;100958.88;;;13.38;91.27
74045;BME280;62389;51.412;5.436;2023-04-28T13:26:34;100952.09;;;13.34;89.87